sensor_id;sensor_type;location;lat;lon;timestamp;P1;durP1;ratioP1;P2;durP2;ratioP2
39540;SDS011;25219;52.244;21.006;2023-07-28T00:00:22;5.53;;;2.50;;
39540;SDS011;25219;52.244;21.006;2023-07-28T00:02:47;3.57;;;2.43;;
39540;SDS011;25219;52.244;21.006;2023-07-28T00:05:12;4.18;;;2.63;;
39540;SDS011;25219;52.244;21.006;2023-07-28T00:07:37;4.93;;;3.30;;
39540;SDS011;25219;52.244;21.006;2023-07-28T00:10:02;6.07;;;3.17;;
39540;SDS011;25219;52.244;21.006;2023-07-28T00:12:28;4.10;;;2.53;;
39540;SDS011;25219;52.244;21.006;2023-07-28T00:14:53;3.33;;;2.40;;
39540;SDS011;25219;52.244;21.006;2023-07-28T00:17:18;5.07;;;2.00;;
39540;SDS011;25219;52.244;21.006;2023-07-28T00:19:43;5.50;;;2.80;;
39540;SDS011;25219;52.244;21.006;2023-07-28T00:22:08;7.00;;;3.67;;
39540;SDS011;25219;52.244;21.006;2023-07-28T00:24:33;5.63;;;2.40;;
39540;SDS011;25219;52.244;21.006;2023-07-28T00:26:59;6.60;;;2.75;;
39540;SDS011;25219;52.244;21.006;2023-07-28T00:29:24;3.90;;;2.40;;
39540;SDS011;25219;52.244;21.006;2023-07-28T00:31:49;5.00;;;2.58;;
39540;SDS011;25219;52.244;21.006;2023-07-28T00:34:14;5.50;;;2.37;;
39540;SDS011;25219;52.244;21.006;2023-07-28T00:36:39;5.38;;;2.67;;
39540;SDS011;25219;52.244;21.006;2023-07-28T00:39:05;2.97;;;2.35;;
39540;SDS011;25219;52.244;21.006;2023-07-28T00:41:31;5.00;;;2.33;;
39540;SDS011;25219;52.244;21.006;2023-07-28T00:43:56;6.40;;;2.57;;
39540;SDS011;25219;52.244;21.006;2023-07-28T00:46:21;4.37;;;2.43;;
39540;SDS011;25219;52.244;21.006;2023-07-28T00:48:46;4.10;;;2.20;;
39540;SDS011;25219;52.244;21.006;2023-07-28T00:51:11;4.10;;;2.53;;
39540;SDS011;25219;52.244;21.006;2023-07-28T00:53:36;6.63;;;2.70;;
39540;SDS011;25219;52.244;21.006;2023-07-28T00:56:02;3.40;;;2.33;;
39540;SDS011;25219;52.244;21.006;2023-07-28T00:58:27;4.05;;;2.45;;
39540;SDS011;25219;52.244;21.006;2023-07-28T01:00:52;4.88;;;2.90;;
39540;SDS011;25219;52.244;21.006;2023-07-28T01:03:18;5.03;;;2.60;;
39540;SDS011;25219;52.244;21.006;2023-07-28T01:05:58;3.97;;;2.65;;
39540;SDS011;25219;52.244;21.006;2023-07-28T01:08:28;3.67;;;2.33;;
39540;SDS011;25219;52.244;21.006;2023-07-28T01:10:54;4.60;;;2.50;;
39540;SDS011;25219;52.244;21.006;2023-07-28T01:13:20;4.30;;;2.77;;
39540;SDS011;25219;52.244;21.006;2023-07-28T01:15:45;4.60;;;2.93;;
39540;SDS011;25219;52.244;21.006;2023-07-28T01:18:11;7.45;;;3.35;;
39540;SDS011;25219;52.244;21.006;2023-07-28T01:20:36;6.38;;;3.13;;
39540;SDS011;25219;52.244;21.006;2023-07-28T01:23:11;4.15;;;2.83;;
39540;SDS011;25219;52.244;21.006;2023-07-28T01:28:39;6.75;;;3.58;;
39540;SDS011;25219;52.244;21.006;2023-07-28T01:31:05;4.20;;;3.28;;
39540;SDS011;25219;52.244;21.006;2023-07-28T01:33:31;4.35;;;3.22;;
39540;SDS011;25219;52.244;21.006;2023-07-28T01:35:56;7.35;;;3.72;;
39540;SDS011;25219;52.244;21.006;2023-07-28T01:38:21;5.65;;;3.58;;
39540;SDS011;25219;52.244;21.006;2023-07-28T01:40:47;11.63;;;3.53;;
39540;SDS011;25219;52.244;21.006;2023-07-28T01:43:12;6.43;;;3.00;;
39540;SDS011;25219;52.244;21.006;2023-07-28T01:45:37;7.20;;;3.22;;
39540;SDS011;25219;52.244;21.006;2023-07-28T01:48:03;5.73;;;3.53;;
39540;SDS011;25219;52.244;21.006;2023-07-28T01:50:28;8.27;;;3.92;;
39540;SDS011;25219;52.244;21.006;2023-07-28T01:52:53;5.53;;;3.33;;
39540;SDS011;25219;52.244;21.006;2023-07-28T01:55:18;6.03;;;4.05;;
39540;SDS011;25219;52.244;21.006;2023-07-28T01:57:50;4.53;;;3.15;;
39540;SDS011;25219;52.244;21.006;2023-07-28T02:00:15;5.72;;;3.25;;
39540;SDS011;25219;52.244;21.006;2023-07-28T02:02:40;8.13;;;3.30;;
39540;SDS011;25219;52.244;21.006;2023-07-28T02:05:06;5.13;;;3.40;;
39540;SDS011;25219;52.244;21.006;2023-07-28T02:07:31;4.68;;;3.17;;
39540;SDS011;25219;52.244;21.006;2023-07-28T02:09:56;5.50;;;3.63;;
39540;SDS011;25219;52.244;21.006;2023-07-28T02:12:22;4.75;;;3.25;;
39540;SDS011;25219;52.244;21.006;2023-07-28T02:14:47;3.83;;;2.90;;
39540;SDS011;25219;52.244;21.006;2023-07-28T02:17:12;6.20;;;3.30;;
39540;SDS011;25219;52.244;21.006;2023-07-28T02:19:37;4.18;;;2.97;;
39540;SDS011;25219;52.244;21.006;2023-07-28T02:22:03;9.43;;;3.13;;
39540;SDS011;25219;52.244;21.006;2023-07-28T02:24:28;6.60;;;3.30;;
39540;SDS011;25219;52.244;21.006;2023-07-28T02:26:53;4.27;;;3.17;;
39540;SDS011;25219;52.244;21.006;2023-07-28T02:29:19;4.35;;;3.28;;
39540;SDS011;25219;52.244;21.006;2023-07-28T02:31:44;7.75;;;3.17;;
39540;SDS011;25219;52.244;21.006;2023-07-28T02:34:09;7.50;;;2.93;;
39540;SDS011;25219;52.244;21.006;2023-07-28T02:36:35;7.40;;;3.00;;
39540;SDS011;25219;52.244;21.006;2023-07-28T02:39:00;9.18;;;3.20;;
39540;SDS011;25219;52.244;21.006;2023-07-28T02:41:25;4.43;;;3.13;;
39540;SDS011;25219;52.244;21.006;2023-07-28T02:43:50;9.52;;;3.20;;
39540;SDS011;25219;52.244;21.006;2023-07-28T02:46:15;9.43;;;2.83;;
39540;SDS011;25219;52.244;21.006;2023-07-28T02:48:41;7.20;;;2.97;;
39540;SDS011;25219;52.244;21.006;2023-07-28T02:51:06;6.82;;;3.55;;
39540;SDS011;25219;52.244;21.006;2023-07-28T02:53:31;6.00;;;2.83;;
39540;SDS011;25219;52.244;21.006;2023-07-28T02:55:56;7.30;;;3.30;;
39540;SDS011;25219;52.244;21.006;2023-07-28T02:58:21;5.80;;;3.03;;
39540;SDS011;25219;52.244;21.006;2023-07-28T03:00:46;5.65;;;2.90;;
39540;SDS011;25219;52.244;21.006;2023-07-28T03:03:11;5.57;;;3.20;;
39540;SDS011;25219;52.244;21.006;2023-07-28T03:05:37;5.80;;;3.28;;
39540;SDS011;25219;52.244;21.006;2023-07-28T03:08:03;7.00;;;3.45;;
39540;SDS011;25219;52.244;21.006;2023-07-28T03:10:28;4.30;;;3.33;;
39540;SDS011;25219;52.244;21.006;2023-07-28T03:12:54;5.70;;;3.40;;
39540;SDS011;25219;52.244;21.006;2023-07-28T03:15:20;6.90;;;3.13;;
39540;SDS011;25219;52.244;21.006;2023-07-28T03:17:47;4.68;;;3.30;;
39540;SDS011;25219;52.244;21.006;2023-07-28T03:20:12;5.95;;;3.13;;
39540;SDS011;25219;52.244;21.006;2023-07-28T03:22:37;5.40;;;3.27;;
39540;SDS011;25219;52.244;21.006;2023-07-28T03:25:02;6.38;;;3.17;;
39540;SDS011;25219;52.244;21.006;2023-07-28T03:27:28;9.32;;;3.47;;
39540;SDS011;25219;52.244;21.006;2023-07-28T03:29:53;7.53;;;3.63;;
39540;SDS011;25219;52.244;21.006;2023-07-28T03:32:18;4.85;;;3.40;;
39540;SDS011;25219;52.244;21.006;2023-07-28T03:34:43;6.97;;;3.50;;
39540;SDS011;25219;52.244;21.006;2023-07-28T03:37:08;5.90;;;3.55;;
39540;SDS011;25219;52.244;21.006;2023-07-28T03:39:34;5.00;;;3.70;;
39540;SDS011;25219;52.244;21.006;2023-07-28T03:41:59;5.90;;;3.53;;
39540;SDS011;25219;52.244;21.006;2023-07-28T03:44:24;4.03;;;3.17;;
39540;SDS011;25219;52.244;21.006;2023-07-28T03:46:49;7.27;;;3.60;;
39540;SDS011;25219;52.244;21.006;2023-07-28T03:49:14;6.63;;;3.40;;
39540;SDS011;25219;52.244;21.006;2023-07-28T03:51:39;10.73;;;3.80;;
39540;SDS011;25219;52.244;21.006;2023-07-28T03:54:05;4.30;;;3.25;;
39540;SDS011;25219;52.244;21.006;2023-07-28T03:56:30;8.57;;;3.43;;
39540;SDS011;25219;52.244;21.006;2023-07-28T03:58:55;4.93;;;3.20;;
39540;SDS011;25219;52.244;21.006;2023-07-28T04:01:20;7.13;;;3.80;;
39540;SDS011;25219;52.244;21.006;2023-07-28T04:03:46;8.50;;;3.60;;
39540;SDS011;25219;52.244;21.006;2023-07-28T04:06:11;7.82;;;4.03;;
39540;SDS011;25219;52.244;21.006;2023-07-28T04:08:37;5.55;;;3.30;;
39540;SDS011;25219;52.244;21.006;2023-07-28T04:11:02;4.77;;;3.33;;
39540;SDS011;25219;52.244;21.006;2023-07-28T04:13:27;6.97;;;3.87;;
39540;SDS011;25219;52.244;21.006;2023-07-28T04:15:52;6.63;;;3.33;;
39540;SDS011;25219;52.244;21.006;2023-07-28T04:18:17;4.13;;;3.05;;
39540;SDS011;25219;52.244;21.006;2023-07-28T04:20:43;8.30;;;3.55;;
39540;SDS011;25219;52.244;21.006;2023-07-28T04:23:08;5.20;;;3.33;;
39540;SDS011;25219;52.244;21.006;2023-07-28T04:25:33;4.53;;;3.25;;
39540;SDS011;25219;52.244;21.006;2023-07-28T04:27:58;8.27;;;3.13;;
39540;SDS011;25219;52.244;21.006;2023-07-28T04:30:23;5.30;;;3.20;;
39540;SDS011;25219;52.244;21.006;2023-07-28T04:32:49;4.37;;;3.47;;
39540;SDS011;25219;52.244;21.006;2023-07-28T04:35:14;5.10;;;3.50;;
39540;SDS011;25219;52.244;21.006;2023-07-28T04:37:39;5.33;;;3.27;;
39540;SDS011;25219;52.244;21.006;2023-07-28T04:40:04;5.78;;;3.40;;
39540;SDS011;25219;52.244;21.006;2023-07-28T04:42:29;9.35;;;3.08;;
39540;SDS011;25219;52.244;21.006;2023-07-28T04:44:55;4.55;;;2.63;;
39540;SDS011;25219;52.244;21.006;2023-07-28T04:47:20;5.75;;;3.33;;
39540;SDS011;25219;52.244;21.006;2023-07-28T04:49:45;5.93;;;3.22;;
39540;SDS011;25219;52.244;21.006;2023-07-28T04:52:10;5.63;;;3.33;;
39540;SDS011;25219;52.244;21.006;2023-07-28T04:54:35;4.50;;;3.13;;
39540;SDS011;25219;52.244;21.006;2023-07-28T04:57:01;5.07;;;3.33;;
39540;SDS011;25219;52.244;21.006;2023-07-28T04:59:26;5.67;;;3.10;;
39540;SDS011;25219;52.244;21.006;2023-07-28T05:01:51;5.57;;;3.17;;
39540;SDS011;25219;52.244;21.006;2023-07-28T05:04:16;8.65;;;3.22;;
39540;SDS011;25219;52.244;21.006;2023-07-28T05:06:41;4.15;;;3.13;;
39540;SDS011;25219;52.244;21.006;2023-07-28T05:09:06;5.50;;;3.00;;
39540;SDS011;25219;52.244;21.006;2023-07-28T05:11:32;7.73;;;3.37;;
39540;SDS011;25219;52.244;21.006;2023-07-28T05:13:57;5.80;;;3.10;;
39540;SDS011;25219;52.244;21.006;2023-07-28T05:16:22;4.70;;;3.03;;
39540;SDS011;25219;52.244;21.006;2023-07-28T05:18:47;7.33;;;2.97;;
39540;SDS011;25219;52.244;21.006;2023-07-28T05:21:12;5.13;;;3.30;;
39540;SDS011;25219;52.244;21.006;2023-07-28T05:23:37;6.60;;;3.25;;
39540;SDS011;25219;52.244;21.006;2023-07-28T05:26:02;6.73;;;3.27;;
39540;SDS011;25219;52.244;21.006;2023-07-28T05:28:28;5.22;;;3.17;;
39540;SDS011;25219;52.244;21.006;2023-07-28T05:30:53;7.40;;;3.50;;
39540;SDS011;25219;52.244;21.006;2023-07-28T05:33:18;7.15;;;3.35;;
39540;SDS011;25219;52.244;21.006;2023-07-28T05:35:43;4.40;;;2.97;;
39540;SDS011;25219;52.244;21.006;2023-07-28T05:38:08;6.72;;;3.30;;
39540;SDS011;25219;52.244;21.006;2023-07-28T05:40:33;6.57;;;3.00;;
39540;SDS011;25219;52.244;21.006;2023-07-28T05:42:59;4.70;;;3.27;;
39540;SDS011;25219;52.244;21.006;2023-07-28T05:45:24;6.10;;;3.17;;
39540;SDS011;25219;52.244;21.006;2023-07-28T05:47:49;3.67;;;2.47;;
39540;SDS011;25219;52.244;21.006;2023-07-28T05:50:14;6.25;;;3.45;;
39540;SDS011;25219;52.244;21.006;2023-07-28T05:52:39;9.07;;;2.87;;
39540;SDS011;25219;52.244;21.006;2023-07-28T05:55:04;8.05;;;3.03;;
39540;SDS011;25219;52.244;21.006;2023-07-28T05:57:30;5.93;;;3.20;;
39540;SDS011;25219;52.244;21.006;2023-07-28T05:59:55;8.05;;;3.05;;
39540;SDS011;25219;52.244;21.006;2023-07-28T06:02:21;8.73;;;2.97;;
39540;SDS011;25219;52.244;21.006;2023-07-28T06:04:46;12.40;;;2.80;;
39540;SDS011;25219;52.244;21.006;2023-07-28T06:07:11;9.20;;;3.13;;
39540;SDS011;25219;52.244;21.006;2023-07-28T06:09:37;4.53;;;2.72;;
39540;SDS011;25219;52.244;21.006;2023-07-28T06:12:02;5.68;;;3.15;;
39540;SDS011;25219;52.244;21.006;2023-07-28T06:14:28;5.68;;;3.10;;
39540;SDS011;25219;52.244;21.006;2023-07-28T06:16:53;5.53;;;2.53;;
39540;SDS011;25219;52.244;21.006;2023-07-28T06:19:18;6.40;;;2.70;;
39540;SDS011;25219;52.244;21.006;2023-07-28T06:21:49;6.70;;;3.17;;
39540;SDS011;25219;52.244;21.006;2023-07-28T06:24:14;7.78;;;2.97;;
39540;SDS011;25219;52.244;21.006;2023-07-28T06:26:39;9.20;;;2.77;;
39540;SDS011;25219;52.244;21.006;2023-07-28T06:29:04;7.35;;;2.90;;
39540;SDS011;25219;52.244;21.006;2023-07-28T06:31:30;7.47;;;3.50;;
39540;SDS011;25219;52.244;21.006;2023-07-28T06:33:55;5.80;;;2.67;;
39540;SDS011;25219;52.244;21.006;2023-07-28T06:36:21;7.78;;;3.00;;
39540;SDS011;25219;52.244;21.006;2023-07-28T06:38:46;5.70;;;2.50;;
39540;SDS011;25219;52.244;21.006;2023-07-28T06:41:13;7.60;;;3.85;;
39540;SDS011;25219;52.244;21.006;2023-07-28T06:43:38;3.65;;;2.58;;
39540;SDS011;25219;52.244;21.006;2023-07-28T06:46:03;5.95;;;2.80;;
39540;SDS011;25219;52.244;21.006;2023-07-28T06:48:29;5.15;;;2.95;;
39540;SDS011;25219;52.244;21.006;2023-07-28T06:50:54;5.65;;;2.83;;
39540;SDS011;25219;52.244;21.006;2023-07-28T06:53:19;7.63;;;3.00;;
39540;SDS011;25219;52.244;21.006;2023-07-28T06:55:45;5.20;;;2.67;;
39540;SDS011;25219;52.244;21.006;2023-07-28T06:58:10;4.72;;;2.55;;
39540;SDS011;25219;52.244;21.006;2023-07-28T07:00:35;4.30;;;2.58;;
39540;SDS011;25219;52.244;21.006;2023-07-28T07:03:00;5.25;;;3.13;;
39540;SDS011;25219;52.244;21.006;2023-07-28T07:05:26;4.40;;;2.90;;
39540;SDS011;25219;52.244;21.006;2023-07-28T07:07:51;8.23;;;2.83;;
39540;SDS011;25219;52.244;21.006;2023-07-28T07:10:17;4.78;;;2.80;;
39540;SDS011;25219;52.244;21.006;2023-07-28T07:12:42;4.00;;;2.30;;
39540;SDS011;25219;52.244;21.006;2023-07-28T07:15:08;7.40;;;2.78;;
39540;SDS011;25219;52.244;21.006;2023-07-28T07:17:33;4.97;;;2.67;;
39540;SDS011;25219;52.244;21.006;2023-07-28T07:19:58;7.53;;;3.67;;
39540;SDS011;25219;52.244;21.006;2023-07-28T07:22:24;13.20;;;4.78;;
39540;SDS011;25219;52.244;21.006;2023-07-28T07:24:49;13.33;;;4.60;;
39540;SDS011;25219;52.244;21.006;2023-07-28T07:27:14;6.83;;;3.53;;
39540;SDS011;25219;52.244;21.006;2023-07-28T07:29:39;15.80;;;5.17;;
39540;SDS011;25219;52.244;21.006;2023-07-28T07:32:05;7.77;;;3.63;;
39540;SDS011;25219;52.244;21.006;2023-07-28T07:34:30;9.95;;;4.65;;
39540;SDS011;25219;52.244;21.006;2023-07-28T07:36:55;12.37;;;4.67;;
39540;SDS011;25219;52.244;21.006;2023-07-28T07:39:21;7.57;;;4.03;;
39540;SDS011;25219;52.244;21.006;2023-07-28T07:41:47;13.80;;;4.87;;
39540;SDS011;25219;52.244;21.006;2023-07-28T07:44:12;6.50;;;3.83;;
39540;SDS011;25219;52.244;21.006;2023-07-28T07:46:37;8.63;;;4.03;;
39540;SDS011;25219;52.244;21.006;2023-07-28T07:49:02;7.63;;;3.92;;
39540;SDS011;25219;52.244;21.006;2023-07-28T07:51:30;6.68;;;4.00;;
39540;SDS011;25219;52.244;21.006;2023-07-28T07:53:55;8.93;;;3.10;;
39540;SDS011;25219;52.244;21.006;2023-07-28T07:56:20;9.27;;;3.90;;
39540;SDS011;25219;52.244;21.006;2023-07-28T07:58:46;9.57;;;4.20;;
39540;SDS011;25219;52.244;21.006;2023-07-28T08:01:11;10.23;;;4.00;;
39540;SDS011;25219;52.244;21.006;2023-07-28T08:03:36;8.32;;;3.75;;
39540;SDS011;25219;52.244;21.006;2023-07-28T08:06:02;8.68;;;3.85;;
39540;SDS011;25219;52.244;21.006;2023-07-28T08:08:28;7.53;;;3.47;;
39540;SDS011;25219;52.244;21.006;2023-07-28T08:10:53;9.13;;;4.10;;
39540;SDS011;25219;52.244;21.006;2023-07-28T08:13:18;5.77;;;3.50;;
39540;SDS011;25219;52.244;21.006;2023-07-28T08:15:43;5.30;;;3.75;;
39540;SDS011;25219;52.244;21.006;2023-07-28T08:18:09;14.15;;;4.25;;
39540;SDS011;25219;52.244;21.006;2023-07-28T08:20:34;6.93;;;3.73;;
39540;SDS011;25219;52.244;21.006;2023-07-28T08:22:59;6.63;;;3.90;;
39540;SDS011;25219;52.244;21.006;2023-07-28T08:25:24;5.78;;;4.05;;
39540;SDS011;25219;52.244;21.006;2023-07-28T08:27:49;6.20;;;3.75;;
39540;SDS011;25219;52.244;21.006;2023-07-28T08:30:14;6.80;;;4.00;;
39540;SDS011;25219;52.244;21.006;2023-07-28T08:32:40;7.85;;;3.60;;
39540;SDS011;25219;52.244;21.006;2023-07-28T08:35:06;12.05;;;4.75;;
39540;SDS011;25219;52.244;21.006;2023-07-28T08:37:31;7.93;;;4.25;;
39540;SDS011;25219;52.244;21.006;2023-07-28T08:39:56;9.45;;;4.45;;
39540;SDS011;25219;52.244;21.006;2023-07-28T08:42:22;8.02;;;4.25;;
39540;SDS011;25219;52.244;21.006;2023-07-28T08:44:50;6.13;;;3.85;;
39540;SDS011;25219;52.244;21.006;2023-07-28T08:47:17;6.53;;;3.53;;
39540;SDS011;25219;52.244;21.006;2023-07-28T08:49:42;8.03;;;4.17;;
39540;SDS011;25219;52.244;21.006;2023-07-28T08:52:07;5.13;;;4.13;;
39540;SDS011;25219;52.244;21.006;2023-07-28T08:54:33;5.13;;;3.70;;
39540;SDS011;25219;52.244;21.006;2023-07-28T08:56:58;7.32;;;3.95;;
39540;SDS011;25219;52.244;21.006;2023-07-28T08:59:23;5.68;;;3.83;;
39540;SDS011;25219;52.244;21.006;2023-07-28T09:01:51;5.75;;;3.60;;
39540;SDS011;25219;52.244;21.006;2023-07-28T09:04:16;7.30;;;3.72;;
39540;SDS011;25219;52.244;21.006;2023-07-28T09:06:44;6.97;;;4.07;;
39540;SDS011;25219;52.244;21.006;2023-07-28T09:09:09;9.30;;;4.20;;
39540;SDS011;25219;52.244;21.006;2023-07-28T09:11:43;10.27;;;4.40;;
39540;SDS011;25219;52.244;21.006;2023-07-28T09:14:10;6.28;;;4.47;;
39540;SDS011;25219;52.244;21.006;2023-07-28T09:16:36;7.95;;;4.15;;
39540;SDS011;25219;52.244;21.006;2023-07-28T09:19:05;12.53;;;5.43;;
39540;SDS011;25219;52.244;21.006;2023-07-28T09:21:30;5.97;;;3.88;;
39540;SDS011;25219;52.244;21.006;2023-07-28T09:23:58;9.23;;;4.55;;
39540;SDS011;25219;52.244;21.006;2023-07-28T09:26:23;7.28;;;4.20;;
39540;SDS011;25219;52.244;21.006;2023-07-28T09:28:48;6.10;;;4.05;;
39540;SDS011;25219;52.244;21.006;2023-07-28T09:31:14;7.07;;;4.43;;
39540;SDS011;25219;52.244;21.006;2023-07-28T09:33:39;6.57;;;4.50;;
39540;SDS011;25219;52.244;21.006;2023-07-28T09:36:11;4.82;;;3.92;;
39540;SDS011;25219;52.244;21.006;2023-07-28T09:38:37;5.93;;;4.22;;
39540;SDS011;25219;52.244;21.006;2023-07-28T09:41:03;6.38;;;4.07;;
39540;SDS011;25219;52.244;21.006;2023-07-28T09:43:32;6.53;;;4.05;;
39540;SDS011;25219;52.244;21.006;2023-07-28T09:45:57;7.03;;;4.20;;
39540;SDS011;25219;52.244;21.006;2023-07-28T09:48:23;8.30;;;4.63;;
39540;SDS011;25219;52.244;21.006;2023-07-28T09:50:49;7.90;;;4.53;;
39540;SDS011;25219;52.244;21.006;2023-07-28T09:53:14;7.03;;;4.73;;
39540;SDS011;25219;52.244;21.006;2023-07-28T09:55:40;6.88;;;4.70;;
39540;SDS011;25219;52.244;21.006;2023-07-28T09:58:08;6.80;;;4.45;;
39540;SDS011;25219;52.244;21.006;2023-07-28T10:00:34;7.25;;;4.45;;
39540;SDS011;25219;52.244;21.006;2023-07-28T10:03:02;7.73;;;4.40;;
39540;SDS011;25219;52.244;21.006;2023-07-28T10:05:28;8.52;;;4.45;;
39540;SDS011;25219;52.244;21.006;2023-07-28T10:07:54;6.47;;;4.30;;
39540;SDS011;25219;52.244;21.006;2023-07-28T10:10:19;6.33;;;4.53;;
39540;SDS011;25219;52.244;21.006;2023-07-28T10:15:14;13.23;;;4.60;;
39540;SDS011;25219;52.244;21.006;2023-07-28T10:17:46;6.68;;;4.40;;
39540;SDS011;25219;52.244;21.006;2023-07-28T10:23:01;7.60;;;4.18;;
39540;SDS011;25219;52.244;21.006;2023-07-28T10:25:26;6.53;;;4.03;;
39540;SDS011;25219;52.244;21.006;2023-07-28T10:27:52;11.57;;;4.33;;
39540;SDS011;25219;52.244;21.006;2023-07-28T10:30:18;11.18;;;4.70;;
39540;SDS011;25219;52.244;21.006;2023-07-28T10:32:45;9.73;;;4.97;;
39540;SDS011;25219;52.244;21.006;2023-07-28T10:37:38;13.82;;;5.07;;
39540;SDS011;25219;52.244;21.006;2023-07-28T10:42:48;7.88;;;4.30;;
39540;SDS011;25219;52.244;21.006;2023-07-28T10:45:13;6.60;;;4.05;;
39540;SDS011;25219;52.244;21.006;2023-07-28T10:47:38;6.67;;;4.33;;
39540;SDS011;25219;52.244;21.006;2023-07-28T10:50:04;12.13;;;5.22;;
39540;SDS011;25219;52.244;21.006;2023-07-28T10:52:29;9.75;;;4.22;;
39540;SDS011;25219;52.244;21.006;2023-07-28T10:54:55;6.57;;;4.13;;
39540;SDS011;25219;52.244;21.006;2023-07-28T10:57:23;5.90;;;4.53;;
39540;SDS011;25219;52.244;21.006;2023-07-28T10:59:50;9.38;;;5.05;;
39540;SDS011;25219;52.244;21.006;2023-07-28T11:02:15;8.15;;;4.70;;
39540;SDS011;25219;52.244;21.006;2023-07-28T11:04:45;6.33;;;4.73;;
39540;SDS011;25219;52.244;21.006;2023-07-28T11:07:10;7.63;;;4.18;;
39540;SDS011;25219;52.244;21.006;2023-07-28T11:09:35;8.40;;;4.83;;
39540;SDS011;25219;52.244;21.006;2023-07-28T11:12:01;7.40;;;4.57;;
39540;SDS011;25219;52.244;21.006;2023-07-28T11:14:26;9.70;;;5.17;;
39540;SDS011;25219;52.244;21.006;2023-07-28T11:16:51;5.10;;;3.93;;
39540;SDS011;25219;52.244;21.006;2023-07-28T11:19:17;6.80;;;4.15;;
39540;SDS011;25219;52.244;21.006;2023-07-28T11:21:49;6.95;;;3.90;;
39540;SDS011;25219;52.244;21.006;2023-07-28T11:24:18;5.18;;;3.80;;
39540;SDS011;25219;52.244;21.006;2023-07-28T11:26:46;5.35;;;3.97;;
39540;SDS011;25219;52.244;21.006;2023-07-28T11:29:11;12.77;;;4.50;;
39540;SDS011;25219;52.244;21.006;2023-07-28T11:31:36;9.75;;;4.30;;
39540;SDS011;25219;52.244;21.006;2023-07-28T11:34:01;6.73;;;3.93;;
39540;SDS011;25219;52.244;21.006;2023-07-28T11:36:28;7.53;;;4.15;;
39540;SDS011;25219;52.244;21.006;2023-07-28T11:38:54;8.73;;;4.13;;
39540;SDS011;25219;52.244;21.006;2023-07-28T11:41:30;6.32;;;3.90;;
39540;SDS011;25219;52.244;21.006;2023-07-28T11:43:55;7.07;;;3.33;;
39540;SDS011;25219;52.244;21.006;2023-07-28T11:46:37;5.00;;;2.97;;
39540;SDS011;25219;52.244;21.006;2023-07-28T11:49:14;5.28;;;3.30;;
39540;SDS011;25219;52.244;21.006;2023-07-28T11:51:43;3.22;;;2.45;;
39540;SDS011;25219;52.244;21.006;2023-07-28T11:54:16;3.88;;;1.92;;
39540;SDS011;25219;52.244;21.006;2023-07-28T11:56:47;5.13;;;2.10;;
39540;SDS011;25219;52.244;21.006;2023-07-28T11:59:14;1.70;;;1.48;;
39540;SDS011;25219;52.244;21.006;2023-07-28T12:01:56;2.55;;;1.38;;
39540;SDS011;25219;52.244;21.006;2023-07-28T12:04:22;3.15;;;1.65;;
39540;SDS011;25219;52.244;21.006;2023-07-28T12:10:05;7.20;;;1.67;;
39540;SDS011;25219;52.244;21.006;2023-07-28T12:12:29;3.78;;;1.33;;
39540;SDS011;25219;52.244;21.006;2023-07-28T12:14:55;1.40;;;1.23;;
39540;SDS011;25219;52.244;21.006;2023-07-28T12:17:22;4.03;;;1.35;;
39540;SDS011;25219;52.244;21.006;2023-07-28T12:20:01;1.55;;;1.10;;
39540;SDS011;25219;52.244;21.006;2023-07-28T12:22:42;1.35;;;1.00;;
39540;SDS011;25219;52.244;21.006;2023-07-28T12:25:08;1.77;;;1.20;;
39540;SDS011;25219;52.244;21.006;2023-07-28T12:27:33;1.58;;;1.00;;
39540;SDS011;25219;52.244;21.006;2023-07-28T12:29:59;1.57;;;1.00;;
39540;SDS011;25219;52.244;21.006;2023-07-28T12:32:24;2.00;;;1.10;;
39540;SDS011;25219;52.244;21.006;2023-07-28T12:34:52;3.57;;;1.20;;
39540;SDS011;25219;52.244;21.006;2023-07-28T12:37:18;2.03;;;1.30;;
39540;SDS011;25219;52.244;21.006;2023-07-28T12:39:44;2.45;;;1.33;;
39540;SDS011;25219;52.244;21.006;2023-07-28T12:42:09;1.50;;;1.00;;
39540;SDS011;25219;52.244;21.006;2023-07-28T12:44:35;0.98;;;0.90;;
39540;SDS011;25219;52.244;21.006;2023-07-28T12:47:00;2.58;;;1.17;;
39540;SDS011;25219;52.244;21.006;2023-07-28T12:49:29;3.55;;;0.98;;
39540;SDS011;25219;52.244;21.006;2023-07-28T12:51:58;2.47;;;0.98;;
39540;SDS011;25219;52.244;21.006;2023-07-28T12:54:23;2.88;;;0.90;;
39540;SDS011;25219;52.244;21.006;2023-07-28T12:56:49;6.28;;;1.25;;
39540;SDS011;25219;52.244;21.006;2023-07-28T12:59:15;3.83;;;1.10;;
39540;SDS011;25219;52.244;21.006;2023-07-28T13:01:40;5.20;;;1.10;;
39540;SDS011;25219;52.244;21.006;2023-07-28T13:04:05;9.27;;;1.50;;
39540;SDS011;25219;52.244;21.006;2023-07-28T13:06:31;1.73;;;1.10;;
39540;SDS011;25219;52.244;21.006;2023-07-28T13:08:56;2.33;;;1.10;;
39540;SDS011;25219;52.244;21.006;2023-07-28T13:11:24;2.47;;;1.40;;
39540;SDS011;25219;52.244;21.006;2023-07-28T13:13:52;4.07;;;1.90;;
39540;SDS011;25219;52.244;21.006;2023-07-28T13:16:17;3.67;;;1.45;;
39540;SDS011;25219;52.244;21.006;2023-07-28T13:18:42;2.42;;;1.63;;
39540;SDS011;25219;52.244;21.006;2023-07-28T13:21:08;2.38;;;1.17;;
39540;SDS011;25219;52.244;21.006;2023-07-28T13:23:33;2.30;;;1.10;;
39540;SDS011;25219;52.244;21.006;2023-07-28T13:25:58;3.47;;;1.27;;
39540;SDS011;25219;52.244;21.006;2023-07-28T13:28:23;3.85;;;1.15;;
39540;SDS011;25219;52.244;21.006;2023-07-28T13:30:50;3.88;;;1.50;;
39540;SDS011;25219;52.244;21.006;2023-07-28T13:33:15;3.40;;;1.45;;
39540;SDS011;25219;52.244;21.006;2023-07-28T13:35:43;2.35;;;1.50;;
39540;SDS011;25219;52.244;21.006;2023-07-28T13:38:08;4.03;;;1.50;;
39540;SDS011;25219;52.244;21.006;2023-07-28T13:40:34;2.47;;;1.17;;
39540;SDS011;25219;52.244;21.006;2023-07-28T13:43:00;2.33;;;1.13;;
39540;SDS011;25219;52.244;21.006;2023-07-28T13:45:26;3.70;;;1.33;;
39540;SDS011;25219;52.244;21.006;2023-07-28T13:47:51;2.33;;;1.00;;
39540;SDS011;25219;52.244;21.006;2023-07-28T13:50:16;1.60;;;1.08;;
39540;SDS011;25219;52.244;21.006;2023-07-28T13:52:42;1.13;;;1.03;;
39540;SDS011;25219;52.244;21.006;2023-07-28T13:55:07;2.08;;;1.20;;
39540;SDS011;25219;52.244;21.006;2023-07-28T13:57:33;1.98;;;1.60;;
39540;SDS011;25219;52.244;21.006;2023-07-28T13:59:58;3.33;;;1.90;;
39540;SDS011;25219;52.244;21.006;2023-07-28T14:02:23;1.60;;;1.23;;
39540;SDS011;25219;52.244;21.006;2023-07-28T14:04:49;2.27;;;1.27;;
39540;SDS011;25219;52.244;21.006;2023-07-28T14:07:14;1.92;;;1.10;;
39540;SDS011;25219;52.244;21.006;2023-07-28T14:09:39;4.80;;;1.30;;
39540;SDS011;25219;52.244;21.006;2023-07-28T14:12:04;1.93;;;1.30;;
39540;SDS011;25219;52.244;21.006;2023-07-28T14:14:29;3.38;;;1.42;;
39540;SDS011;25219;52.244;21.006;2023-07-28T14:16:55;2.72;;;1.55;;
39540;SDS011;25219;52.244;21.006;2023-07-28T14:19:20;2.17;;;1.10;;
39540;SDS011;25219;52.244;21.006;2023-07-28T14:21:45;3.90;;;1.83;;
39540;SDS011;25219;52.244;21.006;2023-07-28T14:24:10;2.60;;;1.37;;
39540;SDS011;25219;52.244;21.006;2023-07-28T14:26:36;2.50;;;1.27;;
39540;SDS011;25219;52.244;21.006;2023-07-28T14:29:01;1.97;;;1.67;;
39540;SDS011;25219;52.244;21.006;2023-07-28T14:31:26;1.77;;;1.60;;
39540;SDS011;25219;52.244;21.006;2023-07-28T14:33:51;2.87;;;1.50;;
39540;SDS011;25219;52.244;21.006;2023-07-28T14:36:16;1.90;;;1.20;;
39540;SDS011;25219;52.244;21.006;2023-07-28T14:38:42;4.03;;;1.40;;
39540;SDS011;25219;52.244;21.006;2023-07-28T14:41:07;3.90;;;1.00;;